sensor_id;sensor_type;location;lat;lon;timestamp;temperature;humidity
24772;DHT22;12870;52.274;9.754;2023-05-06T00:00:03;13.60;99.90
24772;DHT22;12870;52.274;9.754;2023-05-06T00:02:29;13.60;99.90
24772;DHT22;12870;52.274;9.754;2023-05-06T00:04:55;13.60;99.90
24772;DHT22;12870;52.274;9.754;2023-05-06T00:07:21;13.50;99.90
24772;DHT22;12870;52.274;9.754;2023-05-06T00:09:47;13.50;99.90
24772;DHT22;12870;52.274;9.754;2023-05-06T00:12:13;13.60;99.90
24772;DHT22;12870;52.274;9.754;2023-05-06T00:14:39;13.60;99.90
24772;DHT22;12870;52.274;9.754;2023-05-06T00:17:05;13.50;99.90
24772;DHT22;12870;52.274;9.754;2023-05-06T00:19:30;13.50;99.90
24772;DHT22;12870;52.274;9.754;2023-05-06T00:21:57;13.50;99.90
24772;DHT22;12870;52.274;9.754;2023-05-06T00:24:22;13.50;99.90
24772;DHT22;12870;52.274;9.754;2023-05-06T00:26:49;13.50;99.90
24772;DHT22;12870;52.274;9.754;2023-05-06T00:29:15;13.50;99.90
24772;DHT22;12870;52.274;9.754;2023-05-06T00:31:40;13.50;99.90
24772;DHT22;12870;52.274;9.754;2023-05-06T00:34:06;13.50;99.90
24772;DHT22;12870;52.274;9.754;2023-05-06T00:36:32;13.50;99.90
24772;DHT22;12870;52.274;9.754;2023-05-06T00:38:58;13.50;99.90
24772;DHT22;12870;52.274;9.754;2023-05-06T00:41:24;13.50;99.90
24772;DHT22;12870;52.274;9.754;2023-05-06T00:43:49;13.50;99.90
24772;DHT22;12870;52.274;9.754;2023-05-06T00:46:15;13.50;99.90
24772;DHT22;12870;52.274;9.754;2023-05-06T00:48:43;13.50;99.90
24772;DHT22;12870;52.274;9.754;2023-05-06T00:51:09;13.40;99.90
24772;DHT22;12870;52.274;9.754;2023-05-06T00:53:36;13.40;99.90
24772;DHT22;12870;52.274;9.754;2023-05-06T00:56:03;13.40;99.90
24772;DHT22;12870;52.274;9.754;2023-05-06T00:58:29;13.40;99.90
24772;DHT22;12870;52.274;9.754;2023-05-06T01:00:55;13.40;99.90
24772;DHT22;12870;52.274;9.754;2023-05-06T01:03:21;13.40;99.90
24772;DHT22;12870;52.274;9.754;2023-05-06T01:11:54;13.30;99.90
24772;DHT22;12870;52.274;9.754;2023-05-06T01:14:35;13.20;99.90
24772;DHT22;12870;52.274;9.754;2023-05-06T01:17:08;13.20;99.90
24772;DHT22;12870;52.274;9.754;2023-05-06T01:19:42;13.20;99.90
24772;DHT22;12870;52.274;9.754;2023-05-06T01:22:12;13.20;99.90
24772;DHT22;12870;52.274;9.754;2023-05-06T01:24:39;13.10;99.90
24772;DHT22;12870;52.274;9.754;2023-05-06T01:27:06;13.10;99.90
24772;DHT22;12870;52.274;9.754;2023-05-06T01:29:34;13.10;99.90
24772;DHT22;12870;52.274;9.754;2023-05-06T01:34:52;13.00;99.90
24772;DHT22;12870;52.274;9.754;2023-05-06T01:37:21;12.90;99.90
24772;DHT22;12870;52.274;9.754;2023-05-06T01:39:48;13.00;99.90
24772;DHT22;12870;52.274;9.754;2023-05-06T01:42:14;13.00;99.90
24772;DHT22;12870;52.274;9.754;2023-05-06T01:44:41;13.00;99.90
24772;DHT22;12870;52.274;9.754;2023-05-06T01:47:09;13.00;99.90
24772;DHT22;12870;52.274;9.754;2023-05-06T01:49:35;13.10;99.90
24772;DHT22;12870;52.274;9.754;2023-05-06T01:52:01;13.10;99.90
24772;DHT22;12870;52.274;9.754;2023-05-06T01:54:27;13.10;99.90
24772;DHT22;12870;52.274;9.754;2023-05-06T01:56:52;13.00;99.90
24772;DHT22;12870;52.274;9.754;2023-05-06T01:59:18;12.90;99.90
24772;DHT22;12870;52.274;9.754;2023-05-06T02:01:44;12.90;99.90
24772;DHT22;12870;52.274;9.754;2023-05-06T02:04:10;12.80;99.90
24772;DHT22;12870;52.274;9.754;2023-05-06T02:06:35;12.60;99.90
24772;DHT22;12870;52.274;9.754;2023-05-06T02:09:01;12.50;99.90
24772;DHT22;12870;52.274;9.754;2023-05-06T02:11:27;12.40;99.90
24772;DHT22;12870;52.274;9.754;2023-05-06T02:13:53;12.40;99.90
24772;DHT22;12870;52.274;9.754;2023-05-06T02:16:19;12.30;99.90
24772;DHT22;12870;52.274;9.754;2023-05-06T02:18:46;12.20;99.90
24772;DHT22;12870;52.274;9.754;2023-05-06T02:21:12;12.30;99.90
24772;DHT22;12870;52.274;9.754;2023-05-06T02:23:37;12.30;99.90
24772;DHT22;12870;52.274;9.754;2023-05-06T02:26:03;12.30;99.90
24772;DHT22;12870;52.274;9.754;2023-05-06T02:28:29;12.40;99.90
24772;DHT22;12870;52.274;9.754;2023-05-06T02:30:55;12.50;99.90
24772;DHT22;12870;52.274;9.754;2023-05-06T02:33:22;12.50;99.90
24772;DHT22;12870;52.274;9.754;2023-05-06T02:35:48;12.50;99.90
24772;DHT22;12870;52.274;9.754;2023-05-06T02:38:14;12.50;99.90
24772;DHT22;12870;52.274;9.754;2023-05-06T02:40:39;12.50;99.90
24772;DHT22;12870;52.274;9.754;2023-05-06T02:43:05;12.50;99.90
24772;DHT22;12870;52.274;9.754;2023-05-06T02:45:31;12.50;99.90
24772;DHT22;12870;52.274;9.754;2023-05-06T02:47:56;12.40;99.90
24772;DHT22;12870;52.274;9.754;2023-05-06T02:50:22;12.40;99.90
24772;DHT22;12870;52.274;9.754;2023-05-06T02:52:48;12.40;99.90
24772;DHT22;12870;52.274;9.754;2023-05-06T02:55:13;12.30;99.90
24772;DHT22;12870;52.274;9.754;2023-05-06T02:57:39;12.30;99.90
24772;DHT22;12870;52.274;9.754;2023-05-06T03:00:05;12.30;99.90
24772;DHT22;12870;52.274;9.754;2023-05-06T03:02:31;12.30;99.90
24772;DHT22;12870;52.274;9.754;2023-05-06T03:04:57;12.30;99.90
24772;DHT22;12870;52.274;9.754;2023-05-06T03:07:22;12.20;99.90
24772;DHT22;12870;52.274;9.754;2023-05-06T03:09:48;12.20;99.90
24772;DHT22;12870;52.274;9.754;2023-05-06T03:12:14;12.20;99.90
24772;DHT22;12870;52.274;9.754;2023-05-06T03:14:39;12.20;99.90
24772;DHT22;12870;52.274;9.754;2023-05-06T03:17:05;12.10;99.90
24772;DHT22;12870;52.274;9.754;2023-05-06T03:19:31;12.10;99.90
24772;DHT22;12870;52.274;9.754;2023-05-06T03:21:56;12.00;99.90
24772;DHT22;12870;52.274;9.754;2023-05-06T03:24:22;12.00;99.90
24772;DHT22;12870;52.274;9.754;2023-05-06T03:26:47;11.90;99.90
24772;DHT22;12870;52.274;9.754;2023-05-06T03:29:13;11.90;99.90
24772;DHT22;12870;52.274;9.754;2023-05-06T03:31:39;11.80;99.90
24772;DHT22;12870;52.274;9.754;2023-05-06T03:34:04;11.80;99.90
24772;DHT22;12870;52.274;9.754;2023-05-06T03:36:30;11.70;99.90
24772;DHT22;12870;52.274;9.754;2023-05-06T03:38:56;11.70;99.90
24772;DHT22;12870;52.274;9.754;2023-05-06T03:41:23;11.60;99.90
24772;DHT22;12870;52.274;9.754;2023-05-06T03:43:48;11.60;99.90
24772;DHT22;12870;52.274;9.754;2023-05-06T03:46:14;11.60;99.90
24772;DHT22;12870;52.274;9.754;2023-05-06T03:48:40;11.60;99.90
24772;DHT22;12870;52.274;9.754;2023-05-06T03:51:06;11.60;99.90
24772;DHT22;12870;52.274;9.754;2023-05-06T03:53:32;11.60;99.90
24772;DHT22;12870;52.274;9.754;2023-05-06T03:55:57;11.50;99.90
24772;DHT22;12870;52.274;9.754;2023-05-06T03:58:23;11.40;99.90
24772;DHT22;12870;52.274;9.754;2023-05-06T04:00:49;11.40;99.90
24772;DHT22;12870;52.274;9.754;2023-05-06T04:03:15;11.30;99.90
24772;DHT22;12870;52.274;9.754;2023-05-06T04:05:40;11.30;99.90
24772;DHT22;12870;52.274;9.754;2023-05-06T04:08:06;11.20;99.90
24772;DHT22;12870;52.274;9.754;2023-05-06T04:10:36;11.20;99.90
24772;DHT22;12870;52.274;9.754;2023-05-06T04:13:01;11.10;99.90
24772;DHT22;12870;52.274;9.754;2023-05-06T04:15:27;11.10;99.90
24772;DHT22;12870;52.274;9.754;2023-05-06T04:17:56;11.10;99.90
24772;DHT22;12870;52.274;9.754;2023-05-06T04:20:21;11.10;99.90
24772;DHT22;12870;52.274;9.754;2023-05-06T04:22:47;11.10;99.90
24772;DHT22;12870;52.274;9.754;2023-05-06T04:25:13;11.10;99.90
24772;DHT22;12870;52.274;9.754;2023-05-06T04:27:38;11.20;99.90
24772;DHT22;12870;52.274;9.754;2023-05-06T04:30:04;11.30;99.90
24772;DHT22;12870;52.274;9.754;2023-05-06T04:32:30;11.40;99.90
24772;DHT22;12870;52.274;9.754;2023-05-06T04:34:56;11.40;99.90
24772;DHT22;12870;52.274;9.754;2023-05-06T04:37:22;11.50;99.90
24772;DHT22;12870;52.274;9.754;2023-05-06T04:39:47;11.60;99.90
24772;DHT22;12870;52.274;9.754;2023-05-06T04:42:14;11.60;99.90
24772;DHT22;12870;52.274;9.754;2023-05-06T04:44:41;11.60;99.90
24772;DHT22;12870;52.274;9.754;2023-05-06T04:47:07;11.60;99.90
24772;DHT22;12870;52.274;9.754;2023-05-06T04:49:32;11.60;99.90
24772;DHT22;12870;52.274;9.754;2023-05-06T04:51:58;11.70;99.90
24772;DHT22;12870;52.274;9.754;2023-05-06T04:54:24;11.70;99.90
24772;DHT22;12870;52.274;9.754;2023-05-06T04:56:50;11.80;99.90
24772;DHT22;12870;52.274;9.754;2023-05-06T04:59:16;11.90;99.90
24772;DHT22;12870;52.274;9.754;2023-05-06T05:01:41;11.90;99.90
24772;DHT22;12870;52.274;9.754;2023-05-06T05:04:07;11.90;99.90
24772;DHT22;12870;52.274;9.754;2023-05-06T05:06:32;11.90;99.90
24772;DHT22;12870;52.274;9.754;2023-05-06T05:08:58;11.90;99.90
24772;DHT22;12870;52.274;9.754;2023-05-06T05:11:24;11.90;99.90
24772;DHT22;12870;52.274;9.754;2023-05-06T05:13:50;11.90;99.90
24772;DHT22;12870;52.274;9.754;2023-05-06T05:16:15;12.00;99.90
24772;DHT22;12870;52.274;9.754;2023-05-06T05:18:41;12.10;99.90
24772;DHT22;12870;52.274;9.754;2023-05-06T05:21:07;12.10;99.90
24772;DHT22;12870;52.274;9.754;2023-05-06T05:23:32;12.10;99.90
24772;DHT22;12870;52.274;9.754;2023-05-06T05:25:58;12.00;99.90
24772;DHT22;12870;52.274;9.754;2023-05-06T05:28:24;12.10;99.90
24772;DHT22;12870;52.274;9.754;2023-05-06T05:30:50;12.00;99.90
24772;DHT22;12870;52.274;9.754;2023-05-06T05:33:15;12.10;99.90
24772;DHT22;12870;52.274;9.754;2023-05-06T05:35:41;12.20;99.90
24772;DHT22;12870;52.274;9.754;2023-05-06T05:38:07;12.20;99.90
24772;DHT22;12870;52.274;9.754;2023-05-06T05:40:34;12.30;99.90
24772;DHT22;12870;52.274;9.754;2023-05-06T05:43:00;12.30;99.90
24772;DHT22;12870;52.274;9.754;2023-05-06T05:45:26;12.30;99.90
24772;DHT22;12870;52.274;9.754;2023-05-06T05:47:52;12.30;99.90
24772;DHT22;12870;52.274;9.754;2023-05-06T05:50:18;12.30;99.90
24772;DHT22;12870;52.274;9.754;2023-05-06T05:52:44;12.40;99.90
24772;DHT22;12870;52.274;9.754;2023-05-06T05:55:09;12.30;99.90
24772;DHT22;12870;52.274;9.754;2023-05-06T05:57:35;12.40;99.90
24772;DHT22;12870;52.274;9.754;2023-05-06T06:00:01;12.30;99.90
24772;DHT22;12870;52.274;9.754;2023-05-06T06:02:27;12.40;99.90
24772;DHT22;12870;52.274;9.754;2023-05-06T06:04:52;12.50;99.90
24772;DHT22;12870;52.274;9.754;2023-05-06T06:07:18;12.60;99.90
24772;DHT22;12870;52.274;9.754;2023-05-06T06:09:44;12.60;99.90
24772;DHT22;12870;52.274;9.754;2023-05-06T06:12:11;12.70;99.90
24772;DHT22;12870;52.274;9.754;2023-05-06T06:14:36;12.80;99.90
24772;DHT22;12870;52.274;9.754;2023-05-06T06:17:02;12.90;99.90
24772;DHT22;12870;52.274;9.754;2023-05-06T06:19:28;12.90;99.90
24772;DHT22;12870;52.274;9.754;2023-05-06T06:21:54;13.00;99.90
24772;DHT22;12870;52.274;9.754;2023-05-06T06:24:20;12.90;99.90
24772;DHT22;12870;52.274;9.754;2023-05-06T06:26:46;13.00;99.90
24772;DHT22;12870;52.274;9.754;2023-05-06T06:29:12;13.00;99.90
24772;DHT22;12870;52.274;9.754;2023-05-06T06:31:38;13.10;99.90
24772;DHT22;12870;52.274;9.754;2023-05-06T06:34:03;13.30;99.90
24772;DHT22;12870;52.274;9.754;2023-05-06T06:36:31;13.40;99.90
24772;DHT22;12870;52.274;9.754;2023-05-06T06:38:57;13.50;99.90
24772;DHT22;12870;52.274;9.754;2023-05-06T06:41:22;13.60;99.90
24772;DHT22;12870;52.274;9.754;2023-05-06T06:43:48;13.70;99.90
24772;DHT22;12870;52.274;9.754;2023-05-06T06:46:14;13.70;99.90
24772;DHT22;12870;52.274;9.754;2023-05-06T06:48:40;13.70;99.90
24772;DHT22;12870;52.274;9.754;2023-05-06T06:51:05;13.70;99.90
24772;DHT22;12870;52.274;9.754;2023-05-06T06:53:31;13.50;99.90
24772;DHT22;12870;52.274;9.754;2023-05-06T06:55:57;13.60;99.90
24772;DHT22;12870;52.274;9.754;2023-05-06T06:58:22;13.80;99.90
24772;DHT22;12870;52.274;9.754;2023-05-06T07:00:48;13.90;99.90
24772;DHT22;12870;52.274;9.754;2023-05-06T07:03:14;13.80;99.90
24772;DHT22;12870;52.274;9.754;2023-05-06T07:05:43;14.10;99.90
24772;DHT22;12870;52.274;9.754;2023-05-06T07:08:09;14.10;99.90
24772;DHT22;12870;52.274;9.754;2023-05-06T07:10:35;14.30;99.90
24772;DHT22;12870;52.274;9.754;2023-05-06T07:13:01;14.60;99.90
24772;DHT22;12870;52.274;9.754;2023-05-06T07:15:27;14.70;99.90
24772;DHT22;12870;52.274;9.754;2023-05-06T07:17:52;14.80;99.90
24772;DHT22;12870;52.274;9.754;2023-05-06T07:20:18;14.90;99.90
24772;DHT22;12870;52.274;9.754;2023-05-06T07:22:44;15.00;99.90
24772;DHT22;12870;52.274;9.754;2023-05-06T07:25:10;15.10;99.90
24772;DHT22;12870;52.274;9.754;2023-05-06T07:27:36;15.20;99.90
24772;DHT22;12870;52.274;9.754;2023-05-06T07:30:02;15.30;99.90
24772;DHT22;12870;52.274;9.754;2023-05-06T07:32:28;15.10;99.90
24772;DHT22;12870;52.274;9.754;2023-05-06T07:34:53;15.20;99.90
24772;DHT22;12870;52.274;9.754;2023-05-06T07:37:19;15.20;99.90
24772;DHT22;12870;52.274;9.754;2023-05-06T07:39:45;15.30;99.90
24772;DHT22;12870;52.274;9.754;2023-05-06T07:42:10;15.50;99.90
24772;DHT22;12870;52.274;9.754;2023-05-06T07:44:38;15.50;99.90
24772;DHT22;12870;52.274;9.754;2023-05-06T07:47:04;15.60;99.90
24772;DHT22;12870;52.274;9.754;2023-05-06T07:49:30;15.50;99.90
24772;DHT22;12870;52.274;9.754;2023-05-06T07:51:58;15.20;99.90
24772;DHT22;12870;52.274;9.754;2023-05-06T07:54:23;15.30;99.90
24772;DHT22;12870;52.274;9.754;2023-05-06T07:56:49;15.20;99.90
24772;DHT22;12870;52.274;9.754;2023-05-06T07:59:15;15.40;99.90
24772;DHT22;12870;52.274;9.754;2023-05-06T08:01:40;15.40;99.90
24772;DHT22;12870;52.274;9.754;2023-05-06T08:04:06;15.60;99.90
24772;DHT22;12870;52.274;9.754;2023-05-06T08:06:32;15.80;99.90
24772;DHT22;12870;52.274;9.754;2023-05-06T08:08:58;16.00;99.90
24772;DHT22;12870;52.274;9.754;2023-05-06T08:11:24;16.10;99.90
24772;DHT22;12870;52.274;9.754;2023-05-06T08:13:50;16.10;99.90
24772;DHT22;12870;52.274;9.754;2023-05-06T08:16:16;15.90;99.90
24772;DHT22;12870;52.274;9.754;2023-05-06T08:18:41;15.80;99.90
24772;DHT22;12870;52.274;9.754;2023-05-06T08:21:07;15.70;99.90
24772;DHT22;12870;52.274;9.754;2023-05-06T08:23:33;15.50;99.90
24772;DHT22;12870;52.274;9.754;2023-05-06T08:25:59;15.60;99.90
24772;DHT22;12870;52.274;9.754;2023-05-06T08:28:24;15.80;99.90
24772;DHT22;12870;52.274;9.754;2023-05-06T08:30:50;15.90;99.90
24772;DHT22;12870;52.274;9.754;2023-05-06T08:33:19;16.30;99.90
24772;DHT22;12870;52.274;9.754;2023-05-06T08:35:45;16.30;99.90
24772;DHT22;12870;52.274;9.754;2023-05-06T08:38:11;16.40;99.90
24772;DHT22;12870;52.274;9.754;2023-05-06T08:40:43;16.40;99.90
24772;DHT22;12870;52.274;9.754;2023-05-06T08:43:13;16.40;99.90
24772;DHT22;12870;52.274;9.754;2023-05-06T08:45:40;16.60;99.90
24772;DHT22;12870;52.274;9.754;2023-05-06T08:48:06;17.00;99.90
24772;DHT22;12870;52.274;9.754;2023-05-06T08:50:32;17.10;99.90
24772;DHT22;12870;52.274;9.754;2023-05-06T08:53:01;16.80;99.90
24772;DHT22;12870;52.274;9.754;2023-05-06T08:55:28;16.80;99.90
24772;DHT22;12870;52.274;9.754;2023-05-06T08:57:55;16.70;99.90
24772;DHT22;12870;52.274;9.754;2023-05-06T09:00:21;16.70;99.90
24772;DHT22;12870;52.274;9.754;2023-05-06T09:02:47;17.00;99.90
24772;DHT22;12870;52.274;9.754;2023-05-06T09:05:13;17.10;99.90
24772;DHT22;12870;52.274;9.754;2023-05-06T09:07:38;17.00;99.90
24772;DHT22;12870;52.274;9.754;2023-05-06T09:10:22;17.00;99.90
24772;DHT22;12870;52.274;9.754;2023-05-06T09:12:48;16.80;99.90
24772;DHT22;12870;52.274;9.754;2023-05-06T09:15:14;17.30;99.90
24772;DHT22;12870;52.274;9.754;2023-05-06T09:17:39;17.60;99.90
24772;DHT22;12870;52.274;9.754;2023-05-06T09:20:05;17.50;99.90
24772;DHT22;12870;52.274;9.754;2023-05-06T09:22:36;17.20;99.90
24772;DHT22;12870;52.274;9.754;2023-05-06T09:25:02;17.10;99.90
24772;DHT22;12870;52.274;9.754;2023-05-06T09:27:31;17.20;99.90
24772;DHT22;12870;52.274;9.754;2023-05-06T09:32:31;18.40;99.90
24772;DHT22;12870;52.274;9.754;2023-05-06T09:34:57;19.00;99.90
24772;DHT22;12870;52.274;9.754;2023-05-06T09:37:24;19.10;99.90
24772;DHT22;12870;52.274;9.754;2023-05-06T09:39:57;18.70;99.90
24772;DHT22;12870;52.274;9.754;2023-05-06T09:42:24;18.10;99.90
24772;DHT22;12870;52.274;9.754;2023-05-06T09:44:55;17.70;99.90
24772;DHT22;12870;52.274;9.754;2023-05-06T09:47:25;17.90;99.90
24772;DHT22;12870;52.274;9.754;2023-05-06T09:49:58;18.10;99.90
24772;DHT22;12870;52.274;9.754;2023-05-06T09:52:28;18.40;99.90
24772;DHT22;12870;52.274;9.754;2023-05-06T09:54:54;18.20;99.90
24772;DHT22;12870;52.274;9.754;2023-05-06T09:57:20;17.70;99.90
24772;DHT22;12870;52.274;9.754;2023-05-06T09:59:50;17.40;99.90
24772;DHT22;12870;52.274;9.754;2023-05-06T10:02:19;17.30;99.90
24772;DHT22;12870;52.274;9.754;2023-05-06T10:04:45;17.70;99.90
24772;DHT22;12870;52.274;9.754;2023-05-06T10:07:14;18.10;99.90
24772;DHT22;12870;52.274;9.754;2023-05-06T10:09:41;18.50;99.90
24772;DHT22;12870;52.274;9.754;2023-05-06T10:12:07;18.60;99.90
24772;DHT22;12870;52.274;9.754;2023-05-06T10:14:36;18.70;99.90
24772;DHT22;12870;52.274;9.754;2023-05-06T10:17:07;18.60;99.90
24772;DHT22;12870;52.274;9.754;2023-05-06T10:19:33;18.70;99.90
24772;DHT22;12870;52.274;9.754;2023-05-06T10:22:09;19.00;99.90
24772;DHT22;12870;52.274;9.754;2023-05-06T10:24:44;19.00;99.90
24772;DHT22;12870;52.274;9.754;2023-05-06T10:27:11;18.70;99.90
24772;DHT22;12870;52.274;9.754;2023-05-06T10:29:38;18.40;99.90
24772;DHT22;12870;52.274;9.754;2023-05-06T10:32:05;18.60;99.90
24772;DHT22;12870;52.274;9.754;2023-05-06T10:34:40;19.30;99.90
24772;DHT22;12870;52.274;9.754;2023-05-06T10:37:07;19.80;99.90
24772;DHT22;12870;52.274;9.754;2023-05-06T10:39:34;20.20;99.90
24772;DHT22;12870;52.274;9.754;2023-05-06T10:42:00;20.30;99.90
24772;DHT22;12870;52.274;9.754;2023-05-06T10:44:58;20.00;99.90
24772;DHT22;12870;52.274;9.754;2023-05-06T10:47:24;20.10;99.90
24772;DHT22;12870;52.274;9.754;2023-05-06T10:50:17;20.90;99.90
24772;DHT22;12870;52.274;9.754;2023-05-06T10:52:48;20.90;99.90
24772;DHT22;12870;52.274;9.754;2023-05-06T10:55:31;20.70;99.90
24772;DHT22;12870;52.274;9.754;2023-05-06T10:58:10;21.10;99.90
24772;DHT22;12870;52.274;9.754;2023-05-06T11:00:37;21.60;99.90
24772;DHT22;12870;52.274;9.754;2023-05-06T11:03:12;21.50;99.90
24772;DHT22;12870;52.274;9.754;2023-05-06T11:05:48;22.00;99.90
24772;DHT22;12870;52.274;9.754;2023-05-06T11:08:15;22.30;99.90
24772;DHT22;12870;52.274;9.754;2023-05-06T11:10:45;22.30;99.90
24772;DHT22;12870;52.274;9.754;2023-05-06T11:13:29;22.50;99.90
24772;DHT22;12870;52.274;9.754;2023-05-06T11:15:58;22.10;99.90
24772;DHT22;12870;52.274;9.754;2023-05-06T11:26:12;21.10;99.90
24772;DHT22;12870;52.274;9.754;2023-05-06T11:28:38;20.60;99.90
24772;DHT22;12870;52.274;9.754;2023-05-06T11:31:04;21.00;99.90
24772;DHT22;12870;52.274;9.754;2023-05-06T11:33:35;21.40;99.90
24772;DHT22;12870;52.274;9.754;2023-05-06T11:36:04;22.10;99.90
24772;DHT22;12870;52.274;9.754;2023-05-06T11:38:45;23.40;99.90
24772;DHT22;12870;52.274;9.754;2023-05-06T11:41:11;24.10;99.90
24772;DHT22;12870;52.274;9.754;2023-05-06T11:43:37;22.90;99.90
24772;DHT22;12870;52.274;9.754;2023-05-06T11:46:03;22.30;99.90
24772;DHT22;12870;52.274;9.754;2023-05-06T11:48:29;22.40;99.90
24772;DHT22;12870;52.274;9.754;2023-05-06T11:50:55;22.70;99.90
24772;DHT22;12870;52.274;9.754;2023-05-06T11:53:22;23.40;99.90
24772;DHT22;12870;52.274;9.754;2023-05-06T11:55:51;22.70;99.90
24772;DHT22;12870;52.274;9.754;2023-05-06T11:58:19;23.60;99.90
24772;DHT22;12870;52.274;9.754;2023-05-06T12:00:48;25.00;99.90
24772;DHT22;12870;52.274;9.754;2023-05-06T12:03:16;25.50;99.90
24772;DHT22;12870;52.274;9.754;2023-05-06T12:05:42;26.10;99.90
24772;DHT22;12870;52.274;9.754;2023-05-06T12:08:10;26.30;99.90
24772;DHT22;12870;52.274;9.754;2023-05-06T12:10:36;25.40;99.90
24772;DHT22;12870;52.274;9.754;2023-05-06T12:13:02;25.20;99.90
24772;DHT22;12870;52.274;9.754;2023-05-06T12:15:29;24.40;99.90
24772;DHT22;12870;52.274;9.754;2023-05-06T12:17:55;25.10;99.90
24772;DHT22;12870;52.274;9.754;2023-05-06T12:20:22;25.80;99.90
24772;DHT22;12870;52.274;9.754;2023-05-06T12:23:07;25.70;99.90
24772;DHT22;12870;52.274;9.754;2023-05-06T12:25:33;26.70;99.90
24772;DHT22;12870;52.274;9.754;2023-05-06T12:27:58;26.80;99.90
24772;DHT22;12870;52.274;9.754;2023-05-06T12:30:30;26.30;99.90
24772;DHT22;12870;52.274;9.754;2023-05-06T12:33:00;26.00;99.90
24772;DHT22;12870;52.274;9.754;2023-05-06T12:35:27;26.50;99.90
24772;DHT22;12870;52.274;9.754;2023-05-06T12:37:54;26.90;99.90
24772;DHT22;12870;52.274;9.754;2023-05-06T12:40:20;27.30;99.90
24772;DHT22;12870;52.274;9.754;2023-05-06T12:42:55;26.60;99.90
24772;DHT22;12870;52.274;9.754;2023-05-06T12:45:21;26.00;99.90
24772;DHT22;12870;52.274;9.754;2023-05-06T12:47:55;25.90;99.90
24772;DHT22;12870;52.274;9.754;2023-05-06T12:50:38;25.90;99.90
24772;DHT22;12870;52.274;9.754;2023-05-06T12:53:04;25.20;99.90
24772;DHT22;12870;52.274;9.754;2023-05-06T12:55:38;25.80;99.90
24772;DHT22;12870;52.274;9.754;2023-05-06T12:58:14;26.30;99.90
24772;DHT22;12870;52.274;9.754;2023-05-06T13:00:40;26.90;99.90
24772;DHT22;12870;52.274;9.754;2023-05-06T13:03:06;27.30;99.90
24772;DHT22;12870;52.274;9.754;2023-05-06T13:05:31;27.90;99.90
24772;DHT22;12870;52.274;9.754;2023-05-06T13:07:57;28.00;99.90
24772;DHT22;12870;52.274;9.754;2023-05-06T13:10:23;27.80;99.10
24772;DHT22;12870;52.274;9.754;2023-05-06T13:12:48;27.70;99.70
24772;DHT22;12870;52.274;9.754;2023-05-06T13:15:14;28.00;99.70
24772;DHT22;12870;52.274;9.754;2023-05-06T13:17:40;28.00;98.70
24772;DHT22;12870;52.274;9.754;2023-05-06T13:20:06;27.60;98.10
24772;DHT22;12870;52.274;9.754;2023-05-06T13:22:32;27.30;98.70
24772;DHT22;12870;52.274;9.754;2023-05-06T13:24:57;27.30;99.20
24772;DHT22;12870;52.274;9.754;2023-05-06T13:27:23;27.50;98.80
24772;DHT22;12870;52.274;9.754;2023-05-06T13:29:48;27.30;97.40
24772;DHT22;12870;52.274;9.754;2023-05-06T13:32:14;27.40;98.10
24772;DHT22;12870;52.274;9.754;2023-05-06T13:34:40;27.20;98.30
24772;DHT22;12870;52.274;9.754;2023-05-06T13:37:06;27.10;98.30
24772;DHT22;12870;52.274;9.754;2023-05-06T13:39:33;27.20;98.90
24772;DHT22;12870;52.274;9.754;2023-05-06T13:41:59;27.20;98.70
24772;DHT22;12870;52.274;9.754;2023-05-06T13:44:25;26.90;97.60
24772;DHT22;12870;52.274;9.754;2023-05-06T13:46:51;26.40;98.60
24772;DHT22;12870;52.274;9.754;2023-05-06T13:49:17;25.70;98.90
24772;DHT22;12870;52.274;9.754;2023-05-06T13:51:43;25.50;99.30
24772;DHT22;12870;52.274;9.754;2023-05-06T13:54:08;25.30;99.20
24772;DHT22;12870;52.274;9.754;2023-05-06T13:56:34;25.20;99.90
24772;DHT22;12870;52.274;9.754;2023-05-06T13:59:00;25.80;99.70
24772;DHT22;12870;52.274;9.754;2023-05-06T14:01:26;26.20;98.80
24772;DHT22;12870;52.274;9.754;2023-05-06T14:03:51;26.60;98.40
24772;DHT22;12870;52.274;9.754;2023-05-06T14:06:18;26.70;97.10
24772;DHT22;12870;52.274;9.754;2023-05-06T14:08:43;26.80;97.90
24772;DHT22;12870;52.274;9.754;2023-05-06T14:11:09;26.80;97.70
24772;DHT22;12870;52.274;9.754;2023-05-06T14:13:36;26.60;96.70
24772;DHT22;12870;52.274;9.754;2023-05-06T14:16:02;26.80;97.30
24772;DHT22;12870;52.274;9.754;2023-05-06T14:18:29;26.70;96.50
24772;DHT22;12870;52.274;9.754;2023-05-06T14:20:55;26.50;97.20
24772;DHT22;12870;52.274;9.754;2023-05-06T14:23:21;26.20;97.30
24772;DHT22;12870;52.274;9.754;2023-05-06T14:25:48;25.80;96.90
24772;DHT22;12870;52.274;9.754;2023-05-06T14:28:13;25.50;97.10
24772;DHT22;12870;52.274;9.754;2023-05-06T14:30:40;25.20;98.20
24772;DHT22;12870;52.274;9.754;2023-05-06T14:33:07;25.40;98.70
24772;DHT22;12870;52.274;9.754;2023-05-06T14:35:32;25.90;98.20
24772;DHT22;12870;52.274;9.754;2023-05-06T14:37:58;26.20;97.30
24772;DHT22;12870;52.274;9.754;2023-05-06T14:40:24;26.50;96.40
24772;DHT22;12870;52.274;9.754;2023-05-06T14:42:50;26.80;96.10
24772;DHT22;12870;52.274;9.754;2023-05-06T14:45:16;26.90;96.20
24772;DHT22;12870;52.274;9.754;2023-05-06T14:47:42;27.00;95.50
24772;DHT22;12870;52.274;9.754;2023-05-06T14:50:08;27.10;94.50
24772;DHT22;12870;52.274;9.754;2023-05-06T14:52:36;27.00;95.00
24772;DHT22;12870;52.274;9.754;2023-05-06T14:55:02;26.80;94.60
24772;DHT22;12870;52.274;9.754;2023-05-06T14:57:28;27.00;95.50
24772;DHT22;12870;52.274;9.754;2023-05-06T14:59:53;27.20;94.60
24772;DHT22;12870;52.274;9.754;2023-05-06T15:02:19;27.20;94.00
24772;DHT22;12870;52.274;9.754;2023-05-06T15:04:45;27.30;94.50
24772;DHT22;12870;52.274;9.754;2023-05-06T15:07:11;27.40;92.90
24772;DHT22;12870;52.274;9.754;2023-05-06T15:09:36;27.40;92.00
24772;DHT22;12870;52.274;9.754;2023-05-06T15:12:05;27.50;93.20
24772;DHT22;12870;52.274;9.754;2023-05-06T15:14:31;27.30;91.80
24772;DHT22;12870;52.274;9.754;2023-05-06T15:16:57;27.00;92.20
24772;DHT22;12870;52.274;9.754;2023-05-06T15:19:23;27.00;91.80
24772;DHT22;12870;52.274;9.754;2023-05-06T15:21:48;27.00;92.80
24772;DHT22;12870;52.274;9.754;2023-05-06T15:24:14;27.10;94.30
24772;DHT22;12870;52.274;9.754;2023-05-06T15:26:40;27.00;92.70
24772;DHT22;12870;52.274;9.754;2023-05-06T15:29:06;26.70;92.60
24772;DHT22;12870;52.274;9.754;2023-05-06T15:31:31;26.50;93.50
24772;DHT22;12870;52.274;9.754;2023-05-06T15:34:04;26.30;94.30
24772;DHT22;12870;52.274;9.754;2023-05-06T15:36:30;26.00;92.60
24772;DHT22;12870;52.274;9.754;2023-05-06T15:38:57;25.60;93.30
24772;DHT22;12870;52.274;9.754;2023-05-06T15:41:25;25.70;93.50
24772;DHT22;12870;52.274;9.754;2023-05-06T15:43:52;25.40;94.00
24772;DHT22;12870;52.274;9.754;2023-05-06T15:46:18;25.30;93.50